Santo Hipolito, Brazil
Current Conditions -  °F | °C
As of 3:00 PM on Monday 24 Nov 2014 (Local Time) from SBLS Reporting Station
Light Rain Light Rain  
Wind Chill: 70°   Ceiling: 400
Heat Index: 70°   Visibility: 1.2mi
Dew Point: 68°   Wind: 6mph
Humidity: 94%   Direction: 50°NE
Pressure: 30.06"   Gusts: NA
Location:  18.3°S, 44.22°W
Report Text: SBLS 241700Z 05005KT 330V090 2000 -RA BKN004 BKN020 OVC090 21/20 Q1018
Loading
Personal Weather Stations






























Interactive Weather Map New forecast layout! Learn more

10-Day Weather Forecast

Advertisements
Track Severe Weather on mobile